sensor_id;sensor_type;location;lat;lon;timestamp;P1;durP1;ratioP1;P2;durP2;ratioP2
11008;SDS011;5557;51.670;7.788;2023-11-19T00:00:08;1.37;;;1.27;;
11008;SDS011;5557;51.670;7.788;2023-11-19T00:02:40;1.43;;;1.30;;
11008;SDS011;5557;51.670;7.788;2023-11-19T00:05:09;1.20;;;1.10;;
11008;SDS011;5557;51.670;7.788;2023-11-19T00:07:39;1.40;;;1.30;;
11008;SDS011;5557;51.670;7.788;2023-11-19T00:10:10;1.43;;;1.33;;
11008;SDS011;5557;51.670;7.788;2023-11-19T00:12:39;1.40;;;1.30;;
11008;SDS011;5557;51.670;7.788;2023-11-19T00:15:14;1.60;;;1.50;;
11008;SDS011;5557;51.670;7.788;2023-11-19T00:17:42;1.43;;;1.33;;
11008;SDS011;5557;51.670;7.788;2023-11-19T00:22:43;1.20;;;1.10;;
11008;SDS011;5557;51.670;7.788;2023-11-19T00:25:13;1.20;;;1.10;;
11008;SDS011;5557;51.670;7.788;2023-11-19T00:27:40;1.10;;;1.00;;
11008;SDS011;5557;51.670;7.788;2023-11-19T00:30:11;0.90;;;0.90;;
11008;SDS011;5557;51.670;7.788;2023-11-19T00:32:41;2.83;;;0.93;;
11008;SDS011;5557;51.670;7.788;2023-11-19T00:35:11;1.07;;;0.97;;
11008;SDS011;5557;51.670;7.788;2023-11-19T00:37:41;0.93;;;0.90;;
11008;SDS011;5557;51.670;7.788;2023-11-19T00:40:15;1.67;;;1.10;;
11008;SDS011;5557;51.670;7.788;2023-11-19T00:42:45;2.60;;;1.07;;
11008;SDS011;5557;51.670;7.788;2023-11-19T00:45:12;0.83;;;0.83;;
11008;SDS011;5557;51.670;7.788;2023-11-19T00:47:39;1.53;;;1.20;;
11008;SDS011;5557;51.670;7.788;2023-11-19T00:50:07;1.20;;;1.10;;
11008;SDS011;5557;51.670;7.788;2023-11-19T00:52:38;1.20;;;1.10;;
11008;SDS011;5557;51.670;7.788;2023-11-19T00:55:05;1.13;;;1.03;;
11008;SDS011;5557;51.670;7.788;2023-11-19T00:57:34;1.30;;;1.20;;
11008;SDS011;5557;51.670;7.788;2023-11-19T01:00:02;1.23;;;1.13;;
11008;SDS011;5557;51.670;7.788;2023-11-19T01:02:36;0.87;;;0.87;;
11008;SDS011;5557;51.670;7.788;2023-11-19T01:05:03;1.27;;;1.17;;
11008;SDS011;5557;51.670;7.788;2023-11-19T01:07:30;1.50;;;1.40;;
11008;SDS011;5557;51.670;7.788;2023-11-19T01:09:57;2.63;;;1.13;;
11008;SDS011;5557;51.670;7.788;2023-11-19T01:12:24;2.73;;;1.60;;
11008;SDS011;5557;51.670;7.788;2023-11-19T01:14:51;1.30;;;1.20;;
11008;SDS011;5557;51.670;7.788;2023-11-19T01:17:18;2.00;;;1.80;;
11008;SDS011;5557;51.670;7.788;2023-11-19T01:19:45;1.90;;;1.80;;
11008;SDS011;5557;51.670;7.788;2023-11-19T01:22:12;1.83;;;1.73;;
11008;SDS011;5557;51.670;7.788;2023-11-19T01:24:40;2.00;;;1.90;;
11008;SDS011;5557;51.670;7.788;2023-11-19T01:27:07;6.40;;;2.00;;
11008;SDS011;5557;51.670;7.788;2023-11-19T01:29:34;2.30;;;2.10;;
11008;SDS011;5557;51.670;7.788;2023-11-19T01:32:01;4.10;;;2.90;;
11008;SDS011;5557;51.670;7.788;2023-11-19T01:34:29;3.40;;;2.83;;
11008;SDS011;5557;51.670;7.788;2023-11-19T01:36:56;2.80;;;2.70;;
11008;SDS011;5557;51.670;7.788;2023-11-19T01:39:23;2.90;;;2.80;;
11008;SDS011;5557;51.670;7.788;2023-11-19T01:41:50;2.93;;;2.70;;
11008;SDS011;5557;51.670;7.788;2023-11-19T01:44:17;4.10;;;3.13;;
11008;SDS011;5557;51.670;7.788;2023-11-19T01:46:44;3.30;;;3.10;;
11008;SDS011;5557;51.670;7.788;2023-11-19T01:49:16;3.63;;;3.40;;
11008;SDS011;5557;51.670;7.788;2023-11-19T01:51:45;3.37;;;3.20;;
11008;SDS011;5557;51.670;7.788;2023-11-19T01:54:14;3.30;;;3.20;;
11008;SDS011;5557;51.670;7.788;2023-11-19T01:56:42;3.53;;;3.43;;
11008;SDS011;5557;51.670;7.788;2023-11-19T01:59:09;4.03;;;3.67;;
11008;SDS011;5557;51.670;7.788;2023-11-19T02:01:39;5.03;;;4.10;;
11008;SDS011;5557;51.670;7.788;2023-11-19T02:04:08;3.80;;;3.70;;
11008;SDS011;5557;51.670;7.788;2023-11-19T02:06:40;4.20;;;4.00;;
11008;SDS011;5557;51.670;7.788;2023-11-19T02:09:08;4.00;;;3.80;;
11008;SDS011;5557;51.670;7.788;2023-11-19T02:11:36;5.20;;;3.80;;
11008;SDS011;5557;51.670;7.788;2023-11-19T02:14:06;4.47;;;3.80;;
11008;SDS011;5557;51.670;7.788;2023-11-19T02:16:33;4.00;;;3.80;;
11008;SDS011;5557;51.670;7.788;2023-11-19T02:19:00;3.70;;;3.60;;
11008;SDS011;5557;51.670;7.788;2023-11-19T02:21:27;3.10;;;3.00;;
11008;SDS011;5557;51.670;7.788;2023-11-19T02:23:54;3.50;;;3.40;;
11008;SDS011;5557;51.670;7.788;2023-11-19T02:26:39;4.23;;;3.93;;
11008;SDS011;5557;51.670;7.788;2023-11-19T02:29:13;4.60;;;2.53;;
11008;SDS011;5557;51.670;7.788;2023-11-19T02:31:44;2.40;;;2.30;;
11008;SDS011;5557;51.670;7.788;2023-11-19T02:34:13;2.30;;;2.20;;
11008;SDS011;5557;51.670;7.788;2023-11-19T02:36:40;2.73;;;2.40;;
11008;SDS011;5557;51.670;7.788;2023-11-19T02:39:10;2.53;;;2.33;;
11008;SDS011;5557;51.670;7.788;2023-11-19T02:41:38;2.87;;;2.77;;
11008;SDS011;5557;51.670;7.788;2023-11-19T02:44:06;3.00;;;2.73;;
11008;SDS011;5557;51.670;7.788;2023-11-19T02:46:33;2.70;;;2.60;;
11008;SDS011;5557;51.670;7.788;2023-11-19T02:49:00;2.70;;;2.60;;
11008;SDS011;5557;51.670;7.788;2023-11-19T02:51:27;2.60;;;2.50;;
11008;SDS011;5557;51.670;7.788;2023-11-19T02:53:56;3.83;;;2.43;;
11008;SDS011;5557;51.670;7.788;2023-11-19T02:56:24;2.60;;;2.13;;
11008;SDS011;5557;51.670;7.788;2023-11-19T02:58:52;2.80;;;2.70;;
11008;SDS011;5557;51.670;7.788;2023-11-19T03:01:24;2.50;;;2.30;;
11008;SDS011;5557;51.670;7.788;2023-11-19T03:03:58;2.33;;;2.20;;
11008;SDS011;5557;51.670;7.788;2023-11-19T03:06:28;4.07;;;1.60;;
11008;SDS011;5557;51.670;7.788;2023-11-19T03:08:55;2.67;;;2.43;;
11008;SDS011;5557;51.670;7.788;2023-11-19T03:11:22;2.93;;;2.00;;
11008;SDS011;5557;51.670;7.788;2023-11-19T03:13:49;12.17;;;2.83;;
11008;SDS011;5557;51.670;7.788;2023-11-19T03:16:16;3.13;;;2.47;;
11008;SDS011;5557;51.670;7.788;2023-11-19T03:18:43;3.97;;;2.40;;
11008;SDS011;5557;51.670;7.788;2023-11-19T03:21:11;5.47;;;2.60;;
11008;SDS011;5557;51.670;7.788;2023-11-19T03:23:38;8.00;;;2.70;;
11008;SDS011;5557;51.670;7.788;2023-11-19T03:26:06;9.60;;;2.03;;
11008;SDS011;5557;51.670;7.788;2023-11-19T03:28:35;2.53;;;2.33;;
11008;SDS011;5557;51.670;7.788;2023-11-19T03:31:06;10.87;;;3.07;;
11008;SDS011;5557;51.670;7.788;2023-11-19T03:33:36;7.43;;;3.07;;
11008;SDS011;5557;51.670;7.788;2023-11-19T03:36:04;5.10;;;3.00;;
11008;SDS011;5557;51.670;7.788;2023-11-19T03:38:32;5.97;;;2.43;;
11008;SDS011;5557;51.670;7.788;2023-11-19T03:40:59;4.23;;;2.77;;
11008;SDS011;5557;51.670;7.788;2023-11-19T03:43:26;7.57;;;2.80;;
11008;SDS011;5557;51.670;7.788;2023-11-19T03:45:54;7.57;;;2.37;;
11008;SDS011;5557;51.670;7.788;2023-11-19T03:48:21;9.43;;;3.20;;
11008;SDS011;5557;51.670;7.788;2023-11-19T03:50:48;8.43;;;2.53;;
11008;SDS011;5557;51.670;7.788;2023-11-19T03:53:15;5.30;;;2.97;;
11008;SDS011;5557;51.670;7.788;2023-11-19T03:55:42;6.70;;;3.30;;
11008;SDS011;5557;51.670;7.788;2023-11-19T03:58:09;4.70;;;3.50;;
11008;SDS011;5557;51.670;7.788;2023-11-19T04:00:36;2.87;;;2.70;;
11008;SDS011;5557;51.670;7.788;2023-11-19T04:03:03;5.83;;;3.27;;
11008;SDS011;5557;51.670;7.788;2023-11-19T04:05:31;6.87;;;3.43;;
11008;SDS011;5557;51.670;7.788;2023-11-19T04:07:58;8.93;;;3.23;;
11008;SDS011;5557;51.670;7.788;2023-11-19T04:10:25;6.80;;;4.30;;
11008;SDS011;5557;51.670;7.788;2023-11-19T04:12:53;7.63;;;2.77;;
11008;SDS011;5557;51.670;7.788;2023-11-19T04:15:20;14.67;;;3.07;;
11008;SDS011;5557;51.670;7.788;2023-11-19T04:17:47;10.80;;;3.60;;
11008;SDS011;5557;51.670;7.788;2023-11-19T04:20:15;11.33;;;3.63;;
11008;SDS011;5557;51.670;7.788;2023-11-19T04:22:42;12.00;;;4.37;;
11008;SDS011;5557;51.670;7.788;2023-11-19T04:25:09;8.43;;;4.10;;
11008;SDS011;5557;51.670;7.788;2023-11-19T04:27:37;13.23;;;4.00;;
11008;SDS011;5557;51.670;7.788;2023-11-19T04:30:05;17.40;;;3.60;;
11008;SDS011;5557;51.670;7.788;2023-11-19T04:32:34;11.00;;;4.27;;
11008;SDS011;5557;51.670;7.788;2023-11-19T04:35:02;16.33;;;3.57;;
11008;SDS011;5557;51.670;7.788;2023-11-19T04:37:29;8.07;;;3.80;;
11008;SDS011;5557;51.670;7.788;2023-11-19T04:39:56;13.23;;;4.40;;
11008;SDS011;5557;51.670;7.788;2023-11-19T04:42:23;14.20;;;4.67;;
11008;SDS011;5557;51.670;7.788;2023-11-19T04:44:50;15.60;;;4.50;;
11008;SDS011;5557;51.670;7.788;2023-11-19T04:47:18;16.13;;;4.00;;
11008;SDS011;5557;51.670;7.788;2023-11-19T04:49:45;16.50;;;4.10;;
11008;SDS011;5557;51.670;7.788;2023-11-19T04:52:12;5.73;;;3.00;;
11008;SDS011;5557;51.670;7.788;2023-11-19T04:54:42;21.10;;;5.20;;
11008;SDS011;5557;51.670;7.788;2023-11-19T04:57:10;12.77;;;3.70;;
11008;SDS011;5557;51.670;7.788;2023-11-19T04:59:37;22.17;;;4.87;;
11008;SDS011;5557;51.670;7.788;2023-11-19T05:02:04;15.93;;;5.00;;
11008;SDS011;5557;51.670;7.788;2023-11-19T05:04:32;15.83;;;4.97;;
11008;SDS011;5557;51.670;7.788;2023-11-19T05:06:59;14.37;;;5.07;;
11008;SDS011;5557;51.670;7.788;2023-11-19T05:09:26;14.50;;;4.40;;
11008;SDS011;5557;51.670;7.788;2023-11-19T05:11:53;17.07;;;5.37;;
11008;SDS011;5557;51.670;7.788;2023-11-19T05:14:20;18.53;;;4.10;;
11008;SDS011;5557;51.670;7.788;2023-11-19T05:16:48;21.33;;;4.43;;
11008;SDS011;5557;51.670;7.788;2023-11-19T05:19:16;16.80;;;4.23;;
11008;SDS011;5557;51.670;7.788;2023-11-19T05:21:43;15.43;;;3.67;;
11008;SDS011;5557;51.670;7.788;2023-11-19T05:24:10;34.17;;;5.13;;
11008;SDS011;5557;51.670;7.788;2023-11-19T05:26:40;10.10;;;3.70;;
11008;SDS011;5557;51.670;7.788;2023-11-19T05:29:07;16.73;;;3.77;;
11008;SDS011;5557;51.670;7.788;2023-11-19T05:31:35;10.70;;;4.10;;
11008;SDS011;5557;51.670;7.788;2023-11-19T05:34:06;16.97;;;4.10;;
11008;SDS011;5557;51.670;7.788;2023-11-19T05:36:33;22.77;;;4.40;;
11008;SDS011;5557;51.670;7.788;2023-11-19T05:39:00;18.63;;;4.00;;
11008;SDS011;5557;51.670;7.788;2023-11-19T05:41:29;23.03;;;3.80;;
11008;SDS011;5557;51.670;7.788;2023-11-19T05:43:56;18.23;;;4.10;;
11008;SDS011;5557;51.670;7.788;2023-11-19T05:46:23;32.57;;;5.50;;
11008;SDS011;5557;51.670;7.788;2023-11-19T05:48:52;26.47;;;4.70;;
11008;SDS011;5557;51.670;7.788;2023-11-19T05:51:19;17.17;;;4.50;;
11008;SDS011;5557;51.670;7.788;2023-11-19T05:53:46;27.50;;;5.10;;
11008;SDS011;5557;51.670;7.788;2023-11-19T05:56:13;28.60;;;4.93;;
11008;SDS011;5557;51.670;7.788;2023-11-19T05:58:42;22.13;;;4.97;;
11008;SDS011;5557;51.670;7.788;2023-11-19T06:01:11;16.70;;;3.53;;
11008;SDS011;5557;51.670;7.788;2023-11-19T06:03:38;18.13;;;4.63;;
11008;SDS011;5557;51.670;7.788;2023-11-19T06:06:06;27.10;;;6.30;;
11008;SDS011;5557;51.670;7.788;2023-11-19T06:08:33;40.73;;;5.70;;
11008;SDS011;5557;51.670;7.788;2023-11-19T06:11:00;31.10;;;6.33;;
11008;SDS011;5557;51.670;7.788;2023-11-19T06:13:28;17.70;;;5.67;;
11008;SDS011;5557;51.670;7.788;2023-11-19T06:15:57;24.00;;;5.83;;
11008;SDS011;5557;51.670;7.788;2023-11-19T06:18:25;25.93;;;5.07;;
11008;SDS011;5557;51.670;7.788;2023-11-19T06:20:52;30.70;;;6.00;;
11008;SDS011;5557;51.670;7.788;2023-11-19T06:23:19;23.37;;;5.63;;
11008;SDS011;5557;51.670;7.788;2023-11-19T06:25:46;20.13;;;5.67;;
11008;SDS011;5557;51.670;7.788;2023-11-19T06:28:13;31.03;;;7.10;;
11008;SDS011;5557;51.670;7.788;2023-11-19T06:30:41;27.53;;;7.23;;
11008;SDS011;5557;51.670;7.788;2023-11-19T06:33:12;17.83;;;4.33;;
11008;SDS011;5557;51.670;7.788;2023-11-19T06:35:40;29.67;;;6.03;;
11008;SDS011;5557;51.670;7.788;2023-11-19T06:38:07;26.43;;;6.07;;
11008;SDS011;5557;51.670;7.788;2023-11-19T06:40:35;33.10;;;6.60;;
11008;SDS011;5557;51.670;7.788;2023-11-19T06:43:02;27.83;;;5.83;;
11008;SDS011;5557;51.670;7.788;2023-11-19T06:45:30;21.87;;;7.17;;
11008;SDS011;5557;51.670;7.788;2023-11-19T06:47:57;31.27;;;6.50;;
11008;SDS011;5557;51.670;7.788;2023-11-19T06:50:27;34.50;;;5.20;;
11008;SDS011;5557;51.670;7.788;2023-11-19T06:52:54;30.33;;;5.67;;
11008;SDS011;5557;51.670;7.788;2023-11-19T06:55:21;27.80;;;7.67;;
11008;SDS011;5557;51.670;7.788;2023-11-19T06:57:49;25.10;;;6.20;;
11008;SDS011;5557;51.670;7.788;2023-11-19T07:00:16;17.73;;;4.83;;
11008;SDS011;5557;51.670;7.788;2023-11-19T07:02:44;27.30;;;5.30;;
11008;SDS011;5557;51.670;7.788;2023-11-19T07:05:11;23.63;;;4.93;;
11008;SDS011;5557;51.670;7.788;2023-11-19T07:07:39;22.07;;;4.90;;
11008;SDS011;5557;51.670;7.788;2023-11-19T07:10:07;32.77;;;4.80;;
11008;SDS011;5557;51.670;7.788;2023-11-19T07:12:36;24.83;;;5.47;;
11008;SDS011;5557;51.670;7.788;2023-11-19T07:15:03;27.83;;;4.77;;
11008;SDS011;5557;51.670;7.788;2023-11-19T07:17:31;26.20;;;5.27;;
11008;SDS011;5557;51.670;7.788;2023-11-19T07:19:58;22.23;;;5.20;;
11008;SDS011;5557;51.670;7.788;2023-11-19T07:22:26;26.83;;;5.53;;
11008;SDS011;5557;51.670;7.788;2023-11-19T07:24:56;23.07;;;4.93;;
11008;SDS011;5557;51.670;7.788;2023-11-19T07:27:23;23.13;;;4.53;;
11008;SDS011;5557;51.670;7.788;2023-11-19T07:29:50;18.73;;;5.50;;
11008;SDS011;5557;51.670;7.788;2023-11-19T07:32:18;17.70;;;4.50;;
11008;SDS011;5557;51.670;7.788;2023-11-19T07:34:45;36.90;;;5.93;;
11008;SDS011;5557;51.670;7.788;2023-11-19T07:37:13;33.03;;;5.23;;
11008;SDS011;5557;51.670;7.788;2023-11-19T07:39:40;28.93;;;5.00;;
11008;SDS011;5557;51.670;7.788;2023-11-19T07:42:08;34.83;;;4.90;;
11008;SDS011;5557;51.670;7.788;2023-11-19T07:44:36;23.97;;;5.43;;
11008;SDS011;5557;51.670;7.788;2023-11-19T07:47:03;22.63;;;6.07;;
11008;SDS011;5557;51.670;7.788;2023-11-19T07:49:30;25.10;;;6.53;;
11008;SDS011;5557;51.670;7.788;2023-11-19T07:51:58;23.73;;;5.40;;
11008;SDS011;5557;51.670;7.788;2023-11-19T07:54:25;23.70;;;5.20;;
11008;SDS011;5557;51.670;7.788;2023-11-19T07:56:52;31.37;;;6.20;;
11008;SDS011;5557;51.670;7.788;2023-11-19T07:59:19;21.00;;;5.83;;
11008;SDS011;5557;51.670;7.788;2023-11-19T08:01:46;21.53;;;5.07;;
11008;SDS011;5557;51.670;7.788;2023-11-19T08:04:14;25.50;;;5.10;;
11008;SDS011;5557;51.670;7.788;2023-11-19T08:06:41;25.00;;;5.53;;
11008;SDS011;5557;51.670;7.788;2023-11-19T08:09:08;18.70;;;4.43;;
11008;SDS011;5557;51.670;7.788;2023-11-19T08:11:41;25.23;;;5.00;;
11008;SDS011;5557;51.670;7.788;2023-11-19T08:14:09;43.37;;;7.30;;
11008;SDS011;5557;51.670;7.788;2023-11-19T08:16:36;29.83;;;6.70;;
11008;SDS011;5557;51.670;7.788;2023-11-19T08:19:05;24.07;;;5.40;;
11008;SDS011;5557;51.670;7.788;2023-11-19T08:21:32;18.67;;;4.67;;
11008;SDS011;5557;51.670;7.788;2023-11-19T08:23:59;30.33;;;4.60;;
11008;SDS011;5557;51.670;7.788;2023-11-19T08:26:26;20.40;;;4.03;;
11008;SDS011;5557;51.670;7.788;2023-11-19T08:28:53;24.67;;;5.67;;
11008;SDS011;5557;51.670;7.788;2023-11-19T08:31:20;28.83;;;4.80;;
11008;SDS011;5557;51.670;7.788;2023-11-19T08:33:50;34.27;;;5.43;;
11008;SDS011;5557;51.670;7.788;2023-11-19T08:36:17;32.13;;;6.00;;
11008;SDS011;5557;51.670;7.788;2023-11-19T08:38:45;21.10;;;5.03;;
11008;SDS011;5557;51.670;7.788;2023-11-19T08:41:12;21.63;;;4.83;;
11008;SDS011;5557;51.670;7.788;2023-11-19T08:43:39;27.63;;;4.80;;
11008;SDS011;5557;51.670;7.788;2023-11-19T08:46:11;20.13;;;5.00;;
11008;SDS011;5557;51.670;7.788;2023-11-19T08:48:38;23.57;;;4.97;;
11008;SDS011;5557;51.670;7.788;2023-11-19T08:51:05;26.93;;;5.30;;
11008;SDS011;5557;51.670;7.788;2023-11-19T08:53:33;27.73;;;5.73;;
11008;SDS011;5557;51.670;7.788;2023-11-19T08:56:00;20.70;;;4.43;;
11008;SDS011;5557;51.670;7.788;2023-11-19T08:58:29;34.60;;;7.13;;
11008;SDS011;5557;51.670;7.788;2023-11-19T09:00:57;34.90;;;5.13;;
11008;SDS011;5557;51.670;7.788;2023-11-19T09:03:25;30.90;;;6.30;;
11008;SDS011;5557;51.670;7.788;2023-11-19T09:05:57;25.87;;;5.60;;
11008;SDS011;5557;51.670;7.788;2023-11-19T09:08:24;21.10;;;5.40;;
11008;SDS011;5557;51.670;7.788;2023-11-19T09:10:51;28.33;;;5.60;;
11008;SDS011;5557;51.670;7.788;2023-11-19T09:13:18;22.57;;;5.43;;
11008;SDS011;5557;51.670;7.788;2023-11-19T09:15:45;32.83;;;5.63;;
11008;SDS011;5557;51.670;7.788;2023-11-19T09:18:12;27.53;;;5.80;;
11008;SDS011;5557;51.670;7.788;2023-11-19T09:20:39;35.00;;;5.30;;
11008;SDS011;5557;51.670;7.788;2023-11-19T09:23:06;28.40;;;4.53;;
11008;SDS011;5557;51.670;7.788;2023-11-19T09:25:35;19.80;;;4.40;;
11008;SDS011;5557;51.670;7.788;2023-11-19T09:28:05;37.63;;;5.70;;
11008;SDS011;5557;51.670;7.788;2023-11-19T09:30:35;21.93;;;4.17;;
11008;SDS011;5557;51.670;7.788;2023-11-19T09:33:02;23.10;;;4.93;;
11008;SDS011;5557;51.670;7.788;2023-11-19T09:35:33;22.23;;;4.90;;
11008;SDS011;5557;51.670;7.788;2023-11-19T09:38:00;22.63;;;5.40;;
11008;SDS011;5557;51.670;7.788;2023-11-19T09:40:30;25.03;;;4.97;;
11008;SDS011;5557;51.670;7.788;2023-11-19T09:42:58;29.37;;;5.13;;
11008;SDS011;5557;51.670;7.788;2023-11-19T09:45:26;29.00;;;6.57;;
11008;SDS011;5557;51.670;7.788;2023-11-19T09:47:55;27.53;;;5.20;;
11008;SDS011;5557;51.670;7.788;2023-11-19T09:50:24;30.40;;;5.60;;
11008;SDS011;5557;51.670;7.788;2023-11-19T09:52:51;31.10;;;5.47;;
11008;SDS011;5557;51.670;7.788;2023-11-19T09:55:18;33.50;;;5.37;;
11008;SDS011;5557;51.670;7.788;2023-11-19T09:57:45;35.37;;;5.60;;
11008;SDS011;5557;51.670;7.788;2023-11-19T10:00:14;24.20;;;4.13;;
11008;SDS011;5557;51.670;7.788;2023-11-19T10:02:43;27.10;;;6.57;;
11008;SDS011;5557;51.670;7.788;2023-11-19T10:05:13;26.27;;;5.43;;
11008;SDS011;5557;51.670;7.788;2023-11-19T10:07:41;21.03;;;4.50;;
11008;SDS011;5557;51.670;7.788;2023-11-19T10:10:09;25.07;;;5.17;;
11008;SDS011;5557;51.670;7.788;2023-11-19T10:12:40;32.43;;;5.27;;
11008;SDS011;5557;51.670;7.788;2023-11-19T10:15:23;29.43;;;5.97;;
11008;SDS011;5557;51.670;7.788;2023-11-19T10:17:56;19.70;;;4.90;;
11008;SDS011;5557;51.670;7.788;2023-11-19T10:20:24;29.70;;;6.03;;
11008;SDS011;5557;51.670;7.788;2023-11-19T10:22:54;32.47;;;4.43;;
11008;SDS011;5557;51.670;7.788;2023-11-19T10:25:22;32.13;;;5.70;;
11008;SDS011;5557;51.670;7.788;2023-11-19T10:27:51;45.30;;;6.27;;
11008;SDS011;5557;51.670;7.788;2023-11-19T10:30:29;31.30;;;5.90;;
11008;SDS011;5557;51.670;7.788;2023-11-19T10:33:07;31.33;;;5.33;;
11008;SDS011;5557;51.670;7.788;2023-11-19T10:35:53;27.63;;;6.00;;
11008;SDS011;5557;51.670;7.788;2023-11-19T10:38:28;20.00;;;4.70;;
11008;SDS011;5557;51.670;7.788;2023-11-19T10:40:55;26.53;;;4.57;;
11008;SDS011;5557;51.670;7.788;2023-11-19T10:43:23;38.70;;;6.00;;
11008;SDS011;5557;51.670;7.788;2023-11-19T10:45:50;34.23;;;6.50;;
11008;SDS011;5557;51.670;7.788;2023-11-19T10:48:18;27.83;;;5.57;;
11008;SDS011;5557;51.670;7.788;2023-11-19T10:50:46;18.37;;;5.40;;
11008;SDS011;5557;51.670;7.788;2023-11-19T10:53:16;61.13;;;6.73;;
11008;SDS011;5557;51.670;7.788;2023-11-19T10:55:47;29.30;;;4.70;;
11008;SDS011;5557;51.670;7.788;2023-11-19T10:58:15;34.60;;;5.47;;
11008;SDS011;5557;51.670;7.788;2023-11-19T11:00:47;16.53;;;3.70;;
11008;SDS011;5557;51.670;7.788;2023-11-19T11:03:18;19.97;;;4.80;;
11008;SDS011;5557;51.670;7.788;2023-11-19T11:05:52;26.40;;;5.83;;
11008;SDS011;5557;51.670;7.788;2023-11-19T11:08:20;25.07;;;4.17;;
11008;SDS011;5557;51.670;7.788;2023-11-19T11:10:54;32.93;;;5.40;;
11008;SDS011;5557;51.670;7.788;2023-11-19T11:13:24;28.27;;;5.97;;
11008;SDS011;5557;51.670;7.788;2023-11-19T11:15:56;33.40;;;5.70;;
11008;SDS011;5557;51.670;7.788;2023-11-19T11:18:27;30.63;;;6.77;;
11008;SDS011;5557;51.670;7.788;2023-11-19T11:20:56;31.80;;;6.40;;
11008;SDS011;5557;51.670;7.788;2023-11-19T11:30:05;32.67;;;6.17;;
11008;SDS011;5557;51.670;7.788;2023-11-19T11:33:10;22.57;;;5.23;;
11008;SDS011;5557;51.670;7.788;2023-11-19T11:36:10;27.97;;;5.73;;
11008;SDS011;5557;51.670;7.788;2023-11-19T11:38:49;26.30;;;5.07;;
11008;SDS011;5557;51.670;7.788;2023-11-19T11:41:22;38.47;;;6.43;;
11008;SDS011;5557;51.670;7.788;2023-11-19T11:43:55;32.43;;;4.80;;
11008;SDS011;5557;51.670;7.788;2023-11-19T11:49:25;26.80;;;4.80;;
11008;SDS011;5557;51.670;7.788;2023-11-19T11:51:59;22.87;;;5.13;;
11008;SDS011;5557;51.670;7.788;2023-11-19T11:54:27;28.33;;;6.17;;
11008;SDS011;5557;51.670;7.788;2023-11-19T12:00:02;27.77;;;4.73;;
11008;SDS011;5557;51.670;7.788;2023-11-19T12:02:32;28.30;;;5.40;;
11008;SDS011;5557;51.670;7.788;2023-11-19T12:04:59;31.43;;;5.77;;
11008;SDS011;5557;51.670;7.788;2023-11-19T12:07:30;28.27;;;5.10;;
11008;SDS011;5557;51.670;7.788;2023-11-19T12:10:06;23.77;;;6.03;;
11008;SDS011;5557;51.670;7.788;2023-11-19T12:12:35;31.23;;;5.57;;
11008;SDS011;5557;51.670;7.788;2023-11-19T12:15:05;24.13;;;5.10;;
11008;SDS011;5557;51.670;7.788;2023-11-19T12:17:41;22.17;;;4.57;;
11008;SDS011;5557;51.670;7.788;2023-11-19T12:20:12;31.80;;;5.70;;
11008;SDS011;5557;51.670;7.788;2023-11-19T12:22:41;24.60;;;4.93;;
11008;SDS011;5557;51.670;7.788;2023-11-19T12:25:10;17.90;;;4.67;;
11008;SDS011;5557;51.670;7.788;2023-11-19T12:27:41;23.47;;;4.90;;
11008;SDS011;5557;51.670;7.788;2023-11-19T12:30:26;18.13;;;3.60;;
11008;SDS011;5557;51.670;7.788;2023-11-19T12:33:07;25.57;;;4.60;;
11008;SDS011;5557;51.670;7.788;2023-11-19T12:35:41;25.90;;;4.90;;
11008;SDS011;5557;51.670;7.788;2023-11-19T12:38:19;20.20;;;4.00;;
11008;SDS011;5557;51.670;7.788;2023-11-19T12:40:47;22.13;;;4.60;;
11008;SDS011;5557;51.670;7.788;2023-11-19T12:43:29;19.97;;;4.10;;
11008;SDS011;5557;51.670;7.788;2023-11-19T12:45:56;26.77;;;4.03;;
11008;SDS011;5557;51.670;7.788;2023-11-19T12:48:24;21.53;;;4.90;;
11008;SDS011;5557;51.670;7.788;2023-11-19T12:50:54;34.93;;;5.20;;
11008;SDS011;5557;51.670;7.788;2023-11-19T12:53:24;27.10;;;5.20;;
11008;SDS011;5557;51.670;7.788;2023-11-19T12:55:52;29.90;;;4.40;;
11008;SDS011;5557;51.670;7.788;2023-11-19T12:58:31;31.70;;;4.53;;
11008;SDS011;5557;51.670;7.788;2023-11-19T13:01:03;14.73;;;3.40;;
11008;SDS011;5557;51.670;7.788;2023-11-19T13:03:32;19.70;;;4.50;;
11008;SDS011;5557;51.670;7.788;2023-11-19T13:06:01;25.53;;;4.93;;
11008;SDS011;5557;51.670;7.788;2023-11-19T13:11:10;15.60;;;3.40;;
11008;SDS011;5557;51.670;7.788;2023-11-19T13:16:27;17.77;;;4.37;;
11008;SDS011;5557;51.670;7.788;2023-11-19T13:18:55;25.87;;;4.60;;
11008;SDS011;5557;51.670;7.788;2023-11-19T13:21:23;18.83;;;4.23;;
11008;SDS011;5557;51.670;7.788;2023-11-19T13:23:51;18.30;;;4.37;;
11008;SDS011;5557;51.670;7.788;2023-11-19T13:26:18;25.03;;;4.83;;
11008;SDS011;5557;51.670;7.788;2023-11-19T13:28:45;16.73;;;4.70;;
11008;SDS011;5557;51.670;7.788;2023-11-19T13:31:12;23.13;;;4.37;;
11008;SDS011;5557;51.670;7.788;2023-11-19T13:33:41;27.63;;;4.50;;
11008;SDS011;5557;51.670;7.788;2023-11-19T13:36:09;15.17;;;3.50;;
11008;SDS011;5557;51.670;7.788;2023-11-19T13:38:40;19.80;;;4.00;;
11008;SDS011;5557;51.670;7.788;2023-11-19T13:41:08;23.93;;;5.77;;
11008;SDS011;5557;51.670;7.788;2023-11-19T13:43:36;22.87;;;4.63;;
11008;SDS011;5557;51.670;7.788;2023-11-19T13:46:04;20.03;;;4.07;;
11008;SDS011;5557;51.670;7.788;2023-11-19T13:48:31;15.17;;;4.37;;
11008;SDS011;5557;51.670;7.788;2023-11-19T13:50:58;24.77;;;4.23;;
11008;SDS011;5557;51.670;7.788;2023-11-19T13:53:26;9.60;;;3.00;;
11008;SDS011;5557;51.670;7.788;2023-11-19T13:55:53;21.70;;;4.40;;
11008;SDS011;5557;51.670;7.788;2023-11-19T13:58:20;17.97;;;4.87;;
11008;SDS011;5557;51.670;7.788;2023-11-19T14:00:47;21.90;;;4.30;;
11008;SDS011;5557;51.670;7.788;2023-11-19T14:03:16;15.10;;;4.00;;
11008;SDS011;5557;51.670;7.788;2023-11-19T14:05:43;18.40;;;5.10;;
11008;SDS011;5557;51.670;7.788;2023-11-19T14:08:10;18.37;;;4.23;;
11008;SDS011;5557;51.670;7.788;2023-11-19T14:10:51;19.57;;;4.50;;
11008;SDS011;5557;51.670;7.788;2023-11-19T14:13:18;15.60;;;4.33;;
11008;SDS011;5557;51.670;7.788;2023-11-19T14:15:45;30.03;;;4.10;;
11008;SDS011;5557;51.670;7.788;2023-11-19T14:18:15;13.30;;;4.43;;
11008;SDS011;5557;51.670;7.788;2023-11-19T14:20:43;18.17;;;3.70;;
11008;SDS011;5557;51.670;7.788;2023-11-19T14:23:10;25.27;;;4.17;;
11008;SDS011;5557;51.670;7.788;2023-11-19T14:25:37;20.47;;;4.33;;
11008;SDS011;5557;51.670;7.788;2023-11-19T14:28:05;20.67;;;4.30;;
11008;SDS011;5557;51.670;7.788;2023-11-19T14:30:32;12.40;;;3.83;;
11008;SDS011;5557;51.670;7.788;2023-11-19T14:33:01;20.67;;;3.70;;
11008;SDS011;5557;51.670;7.788;2023-11-19T14:35:30;16.70;;;3.87;;
11008;SDS011;5557;51.670;7.788;2023-11-19T14:37:59;15.30;;;3.70;;
11008;SDS011;5557;51.670;7.788;2023-11-19T14:40:26;21.27;;;3.47;;
11008;SDS011;5557;51.670;7.788;2023-11-19T14:42:56;12.47;;;2.83;;
11008;SDS011;5557;51.670;7.788;2023-11-19T14:45:23;19.03;;;3.80;;
11008;SDS011;5557;51.670;7.788;2023-11-19T14:47:50;18.40;;;3.90;;
11008;SDS011;5557;51.670;7.788;2023-11-19T14:50:19;10.37;;;3.40;;
11008;SDS011;5557;51.670;7.788;2023-11-19T14:52:46;17.00;;;4.30;;
11008;SDS011;5557;51.670;7.788;2023-11-19T14:55:13;13.93;;;3.40;;
11008;SDS011;5557;51.670;7.788;2023-11-19T14:57:40;13.57;;;3.53;;
11008;SDS011;5557;51.670;7.788;2023-11-19T15:00:14;16.90;;;3.87;;
11008;SDS011;5557;51.670;7.788;2023-11-19T15:02:42;16.13;;;4.43;;
11008;SDS011;5557;51.670;7.788;2023-11-19T15:05:09;11.70;;;4.20;;
11008;SDS011;5557;51.670;7.788;2023-11-19T15:07:36;13.30;;;3.70;;
11008;SDS011;5557;51.670;7.788;2023-11-19T15:10:04;14.00;;;4.63;;
11008;SDS011;5557;51.670;7.788;2023-11-19T15:12:37;26.50;;;4.43;;
11008;SDS011;5557;51.670;7.788;2023-11-19T15:15:07;18.47;;;5.80;;
11008;SDS011;5557;51.670;7.788;2023-11-19T15:17:36;24.63;;;4.60;;
11008;SDS011;5557;51.670;7.788;2023-11-19T15:20:03;17.80;;;3.80;;